createdAt,value
2022-09-28T00:00:26.994Z,8.823242
2022-09-28T00:01:36.829Z,8.823242
2022-09-28T00:02:44.577Z,8.843384
2022-09-28T00:03:54.127Z,8.843384
2022-09-28T00:05:03.802Z,8.843384
2022-09-28T00:06:12.517Z,8.823242
2022-09-28T00:07:22.212Z,8.853455
2022-09-28T00:08:31.940Z,8.843384
2022-09-28T00:09:39.604Z,8.843384
2022-09-28T00:10:49.282Z,8.843384
2022-09-28T00:11:58.967Z,8.843384
2022-09-28T00:13:07.640Z,8.823242
2022-09-28T00:14:17.377Z,8.853455
2022-09-28T00:15:26.054Z,8.853455
2022-09-28T00:16:34.799Z,8.843384
2022-09-28T00:17:44.442Z,8.853455
2022-09-28T00:18:53.116Z,8.873596
2022-09-28T00:20:02.844Z,8.883667
2022-09-28T00:21:11.562Z,8.913879
2022-09-28T00:22:20.223Z,8.893738
2022-09-28T00:23:29.905Z,8.893738
2022-09-28T00:24:38.612Z,8.893738
2022-09-28T00:25:47.326Z,8.893738
2022-09-28T00:26:57.019Z,8.893738
2022-09-28T00:28:04.703Z,8.893738
2022-09-28T00:29:14.500Z,8.893738
2022-09-28T00:30:23.095Z,8.893738
2022-09-28T00:31:30.900Z,8.913879
2022-09-28T00:32:40.614Z,8.893738
2022-09-28T00:33:49.298Z,8.913879
2022-09-28T00:34:57.981Z,8.913879
2022-09-28T00:36:07.722Z,8.913879
2022-09-28T00:37:16.420Z,8.893738
2022-09-28T00:38:26.067Z,8.92395
2022-09-28T00:39:35.810Z,8.913879
2022-09-28T00:40:44.597Z,8.92395
2022-09-28T00:41:53.243Z,8.92395
2022-09-28T00:43:02.961Z,8.92395
2022-09-28T00:44:11.625Z,8.913879
2022-09-28T00:45:21.302Z,8.92395
2022-09-28T00:46:28.959Z,8.944092
2022-09-28T00:47:38.605Z,8.944092
2022-09-28T00:48:46.353Z,8.954163
2022-09-28T00:49:54.059Z,8.974304
2022-09-28T00:51:03.778Z,8.994446
2022-09-28T00:52:11.466Z,8.994446
2022-09-28T00:53:20.128Z,8.974304
2022-09-28T00:54:29.830Z,8.954163
2022-09-28T00:55:38.510Z,8.974304
2022-09-28T00:56:48.244Z,8.974304
2022-09-28T00:57:56.947Z,8.974304
2022-09-28T00:59:05.621Z,8.974304
2022-09-28T01:00:15.361Z,8.974304
2022-09-28T01:01:24.120Z,8.974304
2022-09-28T01:02:33.734Z,8.974304
2022-09-28T01:03:43.379Z,8.954163
2022-09-28T01:04:51.053Z,8.994446
2022-09-28T01:06:00.832Z,8.974304
2022-09-28T01:07:10.465Z,8.954163
2022-09-28T01:08:19.207Z,8.974304
2022-09-28T01:09:28.912Z,9.004517
2022-09-28T01:10:37.577Z,8.994446
2022-09-28T01:11:46.312Z,8.994446
2022-09-28T01:12:56.180Z,8.974304
2022-09-28T01:14:03.839Z,8.974304
2022-09-28T01:15:13.547Z,9.004517
2022-09-28T01:16:22.295Z,8.994446
2022-09-28T01:17:29.925Z,8.994446
2022-09-28T01:18:39.598Z,9.004517
2022-09-28T01:19:48.306Z,9.024658
2022-09-28T01:20:56.958Z,9.0448
2022-09-28T01:22:06.741Z,9.064941
2022-09-28T01:23:15.457Z,9.095154
2022-09-28T01:24:25.173Z,9.105225
2022-09-28T01:25:33.810Z,9.125366
2022-09-28T01:26:41.479Z,9.105225
2022-09-28T01:27:51.142Z,9.075012
2022-09-28T01:29:00.857Z,9.075012
2022-09-28T01:30:09.581Z,9.075012
2022-09-28T01:31:19.275Z,9.075012
2022-09-28T01:32:26.944Z,9.0448
2022-09-28T01:33:36.627Z,9.034729
2022-09-28T01:34:45.359Z,9.0448
2022-09-28T01:35:54.117Z,9.034729
2022-09-28T01:37:03.799Z,9.034729
2022-09-28T01:38:11.501Z,9.004517
2022-09-28T01:39:20.168Z,9.004517
2022-09-28T01:40:29.999Z,9.034729
2022-09-28T01:41:37.575Z,9.034729
2022-09-28T01:42:47.256Z,9.075012
2022-09-28T01:43:55.903Z,9.135437
2022-09-28T01:45:03.594Z,9.155579
2022-09-28T01:46:13.341Z,9.185791
2022-09-28T01:47:20.951Z,9.205933
2022-09-28T01:48:30.637Z,9.216003
2022-09-28T01:49:40.312Z,9.216003
2022-09-28T01:50:47.999Z,9.216003
2022-09-28T01:51:57.695Z,9.205933
2022-09-28T01:53:06.408Z,9.185791
2022-09-28T01:54:14.089Z,9.17572
2022-09-28T01:55:23.745Z,9.155579
2022-09-28T01:56:31.402Z,9.135437
2022-09-28T01:57:40.075Z,9.135437
2022-09-28T01:58:49.803Z,9.125366
2022-09-28T01:59:57.490Z,9.125366
2022-09-28T02:01:07.240Z,9.125366
2022-09-28T02:02:16.894Z,9.105225
2022-09-28T02:03:26.540Z,9.075012
2022-09-28T02:04:36.219Z,9.064941
2022-09-28T02:05:45.880Z,9.0448
2022-09-28T02:06:53.532Z,9.0448
2022-09-28T02:08:03.208Z,9.0448
2022-09-28T02:09:13.028Z,9.034729
2022-09-28T02:10:22.641Z,9.064941
2022-09-28T02:11:32.289Z,9.095154
2022-09-28T02:12:39.980Z,9.135437
2022-09-28T02:13:48.686Z,9.17572
2022-09-28T02:14:58.372Z,9.205933
2022-09-28T02:16:06.077Z,9.185791
2022-09-28T02:17:15.698Z,9.205933
2022-09-28T02:18:25.381Z,9.205933
2022-09-28T02:19:35.081Z,9.205933
2022-09-28T02:20:44.791Z,9.216003
2022-09-28T02:21:52.447Z,9.216003
2022-09-28T02:23:02.274Z,9.205933
2022-09-28T02:24:13.033Z,9.216003
2022-09-28T02:25:22.604Z,9.256287
2022-09-28T02:26:32.294Z,9.286499
2022-09-28T02:27:41.942Z,9.286499
2022-09-28T02:28:50.607Z,9.316711
2022-09-28T02:29:59.307Z,9.336853
2022-09-28T02:31:07.067Z,9.367065
2022-09-28T02:32:15.664Z,9.407349
2022-09-28T02:33:25.340Z,9.387207
2022-09-28T02:34:34.013Z,9.407349
2022-09-28T02:35:43.709Z,9.407349
2022-09-28T02:36:53.423Z,9.437561
2022-09-28T02:38:01.080Z,9.407349
2022-09-28T02:39:10.822Z,9.397278
2022-09-28T02:40:19.503Z,9.387207
2022-09-28T02:41:28.162Z,9.356995
2022-09-28T02:42:37.875Z,9.316711
2022-09-28T02:43:45.556Z,9.286499
2022-09-28T02:44:55.240Z,9.246216
2022-09-28T02:46:04.001Z,9.216003
2022-09-28T02:47:12.602Z,9.17572
2022-09-28T02:48:36.101Z,9.155579
2022-09-28T02:49:33.237Z,9.125366
2022-09-28T02:50:42.694Z,9.105225
2022-09-28T02:51:52.375Z,9.075012
2022-09-28T02:53:00.036Z,9.075012
2022-09-28T02:54:09.794Z,9.0448
2022-09-28T02:55:19.470Z,9.034729
2022-09-28T02:56:28.183Z,9.004517
2022-09-28T02:57:36.849Z,8.994446
2022-09-28T02:58:44.543Z,8.954163
2022-09-28T02:59:53.175Z,8.954163
2022-09-28T03:01:02.914Z,8.994446
2022-09-28T03:02:10.608Z,9.095154
2022-09-28T03:03:20.246Z,9.095154
2022-09-28T03:04:28.956Z,9.075012
2022-09-28T03:05:36.718Z,9.075012
2022-09-28T03:06:46.534Z,9.095154
2022-09-28T03:07:54.271Z,9.095154
2022-09-28T03:09:03.961Z,9.095154
2022-09-28T03:10:13.710Z,9.095154
2022-09-28T03:11:22.366Z,9.075012
2022-09-28T03:12:32.211Z,9.075012
2022-09-28T03:13:40.943Z,9.064941
2022-09-28T03:14:49.637Z,9.064941
2022-09-28T03:15:59.376Z,9.075012
2022-09-28T03:17:08.171Z,9.125366
2022-09-28T03:18:16.907Z,9.135437
2022-09-28T03:19:26.608Z,9.135437
2022-09-28T03:20:35.304Z,9.135437
2022-09-28T03:21:45.071Z,9.105225
2022-09-28T03:23:12.631Z,9.105225
2022-09-28T03:24:04.420Z,9.105225
2022-09-28T03:25:14.087Z,9.075012
2022-09-28T03:26:22.779Z,9.0448
2022-09-28T03:27:31.459Z,9.024658
2022-09-28T03:28:41.168Z,8.974304
2022-09-28T03:29:49.820Z,8.954163
2022-09-28T03:30:59.531Z,8.92395
2022-09-28T03:32:09.204Z,8.913879
2022-09-28T03:33:16.892Z,8.883667
2022-09-28T03:34:26.577Z,8.873596
2022-09-28T03:35:34.294Z,8.853455
2022-09-28T03:36:42.987Z,8.823242
2022-09-28T03:37:52.678Z,8.813171
2022-09-28T03:39:01.390Z,8.79303
2022-09-28T03:40:11.069Z,8.762817
2022-09-28T03:41:19.764Z,8.762817
2022-09-28T03:42:29.550Z,8.732605
2022-09-28T03:43:39.218Z,8.702393
2022-09-28T03:44:49.015Z,8.702393
2022-09-28T03:45:57.727Z,8.702393
2022-09-28T03:47:06.428Z,8.692322
2022-09-28T03:48:15.070Z,8.692322
2022-09-28T03:49:25.792Z,8.692322
2022-09-28T03:50:34.460Z,8.712463
2022-09-28T03:51:42.131Z,8.692322
2022-09-28T03:52:51.882Z,8.702393
2022-09-28T03:54:00.590Z,8.702393
2022-09-28T03:55:09.246Z,8.712463
2022-09-28T03:56:18.927Z,8.732605
2022-09-28T03:57:27.605Z,8.732605
2022-09-28T03:58:37.348Z,8.712463
2022-09-28T03:59:47.084Z,8.742676
2022-09-28T04:00:55.843Z,8.742676
2022-09-28T04:02:05.491Z,8.742676
2022-09-28T04:03:13.142Z,8.732605
2022-09-28T04:04:21.874Z,8.732605
2022-09-28T04:05:31.581Z,8.712463
2022-09-28T04:06:40.247Z,8.702393
2022-09-28T04:07:47.908Z,8.692322
2022-09-28T04:08:57.572Z,8.692322
2022-09-28T04:10:05.265Z,8.67218
2022-09-28T04:11:13.914Z,8.662109
2022-09-28T04:12:23.589Z,8.641968
2022-09-28T04:13:31.260Z,8.641968
2022-09-28T04:14:40.922Z,8.641968
2022-09-28T04:15:49.760Z,8.641968
2022-09-28T04:16:58.519Z,8.662109
2022-09-28T04:18:08.214Z,8.67218
2022-09-28T04:19:15.932Z,8.662109
2022-09-28T04:20:25.589Z,8.662109
2022-09-28T04:21:35.282Z,8.641968
2022-09-28T04:22:42.962Z,8.662109
2022-09-28T04:23:52.664Z,8.641968
2022-09-28T04:25:01.331Z,8.641968
2022-09-28T04:26:11.000Z,8.631897
2022-09-28T04:27:20.698Z,8.641968
2022-09-28T04:28:28.390Z,8.662109
2022-09-28T04:29:37.082Z,8.631897
2022-09-28T04:30:46.749Z,8.641968
2022-09-28T04:31:55.520Z,8.662109
2022-09-28T04:33:05.137Z,8.641968
2022-09-28T04:34:14.803Z,8.641968
2022-09-28T04:35:22.508Z,8.662109
2022-09-28T04:36:32.157Z,8.67218
2022-09-28T04:37:40.846Z,8.692322
2022-09-28T04:38:53.028Z,8.662109
2022-09-28T04:39:59.265Z,8.662109
2022-09-28T04:41:09.013Z,8.662109
2022-09-28T04:42:18.729Z,8.641968
2022-09-28T04:43:28.413Z,8.662109
2022-09-28T04:44:38.151Z,8.662109
2022-09-28T04:45:47.861Z,8.641968
2022-09-28T04:46:56.554Z,8.641968
2022-09-28T04:48:06.215Z,8.641968
2022-09-28T04:49:16.021Z,8.611755
2022-09-28T04:50:23.581Z,8.611755
2022-09-28T04:51:33.421Z,8.611755
2022-09-28T04:52:43.042Z,8.611755
2022-09-28T04:53:51.716Z,8.601685
2022-09-28T04:55:01.434Z,8.581543
2022-09-28T04:56:09.137Z,8.551331
2022-09-28T04:57:18.845Z,8.561401
2022-09-28T04:58:29.509Z,8.551331
2022-09-28T04:59:39.482Z,8.551331
2022-09-28T05:00:57.454Z,8.551331
2022-09-28T05:02:06.081Z,8.531189
2022-09-28T05:03:14.795Z,8.511047
2022-09-28T05:04:26.095Z,8.511047
2022-09-28T05:05:34.165Z,8.511047
2022-09-28T05:06:43.892Z,8.490906
2022-09-28T05:07:53.606Z,8.511047
2022-09-28T05:09:02.287Z,8.511047
2022-09-28T05:10:11.965Z,8.511047
2022-09-28T05:11:20.658Z,8.490906
2022-09-28T05:12:28.333Z,8.490906
2022-09-28T05:13:38.011Z,8.480835
2022-09-28T05:14:47.784Z,8.460693
2022-09-28T05:16:03.146Z,8.480835
2022-09-28T05:17:07.298Z,8.490906
2022-09-28T05:18:15.956Z,8.511047
2022-09-28T05:19:25.835Z,8.511047
2022-09-28T05:20:34.513Z,8.531189
2022-09-28T05:21:42.227Z,8.521118
2022-09-28T05:22:51.953Z,8.551331
2022-09-28T05:24:01.735Z,8.531189
2022-09-28T05:25:11.535Z,8.521118
2022-09-28T05:26:21.200Z,8.521118
2022-09-28T05:27:29.987Z,8.581543
2022-09-28T05:28:39.653Z,8.581543
2022-09-28T05:29:48.327Z,8.611755
2022-09-28T05:30:56.042Z,8.581543
2022-09-28T05:32:05.759Z,8.561401
2022-09-28T05:33:13.407Z,8.581543
2022-09-28T05:34:22.112Z,8.581543
2022-09-28T05:35:31.812Z,8.581543
2022-09-28T05:36:40.522Z,8.601685
2022-09-28T05:37:50.213Z,8.581543
2022-09-28T05:38:58.897Z,8.611755
2022-09-28T05:40:07.607Z,8.601685
2022-09-28T05:41:16.288Z,8.611755
2022-09-28T05:42:24.054Z,8.601685
2022-09-28T05:43:32.791Z,8.601685
2022-09-28T05:44:42.463Z,8.611755
2022-09-28T05:45:54.459Z,8.631897
2022-09-28T05:46:59.787Z,8.631897
2022-09-28T05:48:08.488Z,8.631897
2022-09-28T05:49:17.219Z,8.601685
2022-09-28T05:50:26.912Z,8.601685
2022-09-28T05:51:35.589Z,8.561401
2022-09-28T05:52:45.277Z,8.551331
2022-09-28T05:53:55.015Z,8.521118
2022-09-28T05:55:05.719Z,8.521118
2022-09-28T05:56:15.440Z,8.521118
2022-09-28T05:57:25.126Z,8.521118
2022-09-28T05:58:32.901Z,8.521118
2022-09-28T05:59:42.638Z,8.511047
2022-09-28T06:00:50.421Z,8.521118
2022-09-28T06:01:58.160Z,8.551331
2022-09-28T06:03:09.066Z,8.531189
2022-09-28T06:04:17.715Z,8.561401
2022-09-28T06:05:26.380Z,8.561401
2022-09-28T06:06:36.063Z,8.611755
2022-09-28T06:07:44.828Z,8.641968
2022-09-28T06:08:53.566Z,8.692322
2022-09-28T06:10:03.262Z,8.692322
2022-09-28T06:11:11.008Z,8.712463
2022-09-28T06:12:20.710Z,8.702393
2022-09-28T06:13:29.516Z,8.702393
2022-09-28T06:14:37.211Z,8.702393
2022-09-28T06:15:46.911Z,8.702393
2022-09-28T06:16:56.827Z,8.692322
2022-09-28T06:18:06.417Z,8.692322
2022-09-28T06:19:16.121Z,8.67218
2022-09-28T06:20:25.838Z,8.631897
2022-09-28T06:21:35.520Z,8.631897
2022-09-28T06:22:45.378Z,8.601685
2022-09-28T06:23:54.072Z,8.581543
2022-09-28T06:25:03.813Z,8.581543
2022-09-28T06:26:11.498Z,8.551331
2022-09-28T06:27:21.203Z,8.581543
2022-09-28T06:28:30.900Z,8.561401
2022-09-28T06:29:38.587Z,8.581543
2022-09-28T06:30:48.398Z,8.581543
2022-09-28T06:31:57.979Z,8.581543
2022-09-28T06:33:06.647Z,8.581543
2022-09-28T06:34:17.000Z,8.601685
2022-09-28T06:35:24.613Z,8.561401
2022-09-28T06:36:33.317Z,8.601685
2022-09-28T06:37:43.005Z,8.601685
2022-09-28T06:38:51.706Z,8.611755
2022-09-28T06:40:01.410Z,8.641968
2022-09-28T06:41:10.163Z,8.662109
2022-09-28T06:42:18.820Z,8.662109
2022-09-28T06:43:32.212Z,8.67218
2022-09-28T06:44:38.170Z,8.67218
2022-09-28T06:45:46.910Z,8.692322
2022-09-28T06:46:55.562Z,8.702393
2022-09-28T06:48:03.241Z,8.712463
2022-09-28T06:49:16.146Z,8.742676
2022-09-28T06:50:22.586Z,8.762817
2022-09-28T06:51:31.330Z,8.762817
2022-09-28T06:52:41.033Z,8.79303
2022-09-28T06:53:48.723Z,8.813171
2022-09-28T06:54:57.409Z,8.823242
2022-09-28T06:56:06.163Z,8.843384
2022-09-28T06:57:14.878Z,8.853455
2022-09-28T06:58:24.682Z,8.873596
2022-09-28T06:59:33.374Z,8.893738
2022-09-28T07:00:41.043Z,8.913879
2022-09-28T07:01:50.849Z,8.913879
2022-09-28T07:02:58.463Z,8.954163
2022-09-28T07:04:07.139Z,8.994446
2022-09-28T07:05:16.813Z,8.974304
2022-09-28T07:06:26.527Z,9.004517
2022-09-28T07:07:36.214Z,9.034729
2022-09-28T07:08:47.801Z,9.0448
2022-09-28T07:09:56.751Z,9.004517
2022-09-28T07:11:05.472Z,9.024658
2022-09-28T07:12:13.232Z,9.004517
2022-09-28T07:13:45.960Z,9.004517
2022-09-28T07:14:46.460Z,9.004517
2022-09-28T07:15:43.304Z,9.004517
2022-09-28T07:17:10.536Z,9.004517
2022-09-28T07:18:03.885Z,9.024658
2022-09-28T07:19:11.315Z,9.024658
2022-09-28T07:20:21.064Z,9.024658
2022-09-28T07:21:30.724Z,9.024658
2022-09-28T07:22:43.225Z,9.004517
2022-09-28T07:23:53.083Z,9.004517
2022-09-28T07:24:57.809Z,9.024658
2022-09-28T07:26:09.107Z,9.024658
2022-09-28T07:27:18.329Z,9.034729
2022-09-28T07:28:28.988Z,9.034729
2022-09-28T07:29:38.808Z,9.075012
2022-09-28T07:30:47.681Z,9.075012
2022-09-28T07:31:56.278Z,9.095154
2022-09-28T07:33:05.958Z,9.105225
2022-09-28T07:34:14.738Z,9.125366
2022-09-28T07:35:24.379Z,9.135437
2022-09-28T07:36:34.077Z,9.135437
2022-09-28T07:37:41.960Z,9.17572
2022-09-28T07:38:51.649Z,9.17572
2022-09-28T07:39:59.380Z,9.185791
2022-09-28T07:41:09.071Z,9.216003
2022-09-28T07:42:18.720Z,9.216003
2022-09-28T07:43:26.481Z,9.256287
2022-09-28T07:44:36.211Z,9.256287
2022-09-28T07:45:43.914Z,9.306641
2022-09-28T07:46:51.658Z,9.356995
2022-09-28T07:48:01.345Z,9.356995
2022-09-28T07:49:10.033Z,9.397278
2022-09-28T07:50:17.740Z,9.42749
2022-09-28T07:51:27.443Z,9.457703
2022-09-28T07:52:34.122Z,9.467773
2022-09-28T07:53:43.838Z,9.477844
2022-09-28T07:54:52.523Z,9.497986
2022-09-28T07:56:03.195Z,9.538269
2022-09-28T07:57:12.869Z,9.497986
2022-09-28T07:58:22.571Z,9.508057
2022-09-28T07:59:30.246Z,9.508057
2022-09-28T08:00:40.021Z,9.497986
2022-09-28T08:01:49.746Z,9.54834
2022-09-28T08:02:57.528Z,9.54834
2022-09-28T08:04:07.202Z,9.578552
2022-09-28T08:05:15.951Z,9.578552
2022-09-28T08:06:24.719Z,9.608765
2022-09-28T08:07:34.406Z,9.608765
2022-09-28T08:08:43.124Z,9.608765
2022-09-28T08:09:52.867Z,9.608765
2022-09-28T08:11:02.566Z,9.638977
2022-09-28T08:12:11.537Z,9.638977
2022-09-28T08:13:23.439Z,9.649048
2022-09-28T08:14:30.879Z,9.67926
2022-09-28T08:15:39.584Z,9.689331
2022-09-28T08:16:50.744Z,9.689331
2022-09-28T08:17:59.147Z,9.729614
2022-09-28T08:19:07.668Z,9.729614
2022-09-28T08:20:17.303Z,9.739685
2022-09-28T08:21:24.990Z,9.759827
2022-09-28T08:22:34.733Z,9.759827
2022-09-28T08:23:42.566Z,9.759827
2022-09-28T08:24:52.258Z,9.790039
2022-09-28T08:26:01.977Z,9.759827
2022-09-28T08:27:11.683Z,9.790039
2022-09-28T08:28:21.379Z,9.80011
2022-09-28T08:29:30.217Z,9.80011
2022-09-28T08:30:38.960Z,9.80011
2022-09-28T08:31:48.648Z,9.820251
2022-09-28T08:32:59.304Z,9.80011
2022-09-28T08:34:09.000Z,9.80011
2022-09-28T08:35:18.732Z,9.820251
2022-09-28T08:36:26.428Z,9.830322
2022-09-28T08:37:36.107Z,9.840393
2022-09-28T08:38:46.784Z,9.860535
2022-09-28T08:39:56.513Z,9.870605
2022-09-28T08:41:06.252Z,9.870605
2022-09-28T08:42:14.981Z,9.890747
2022-09-28T08:43:23.640Z,9.840393
2022-09-28T08:44:33.423Z,9.870605
2022-09-28T08:45:42.097Z,9.910889
2022-09-28T08:46:51.889Z,9.920959
2022-09-28T08:48:01.566Z,9.920959
2022-09-28T08:49:24.800Z,9.941101
2022-09-28T08:50:21.976Z,9.920959
2022-09-28T08:51:30.591Z,9.910889
2022-09-28T08:52:38.293Z,9.971313
2022-09-28T08:53:47.984Z,9.941101
2022-09-28T08:54:56.736Z,9.971313
2022-09-28T08:56:06.436Z,9.991455
2022-09-28T08:57:15.165Z,9.981384
2022-09-28T08:58:23.898Z,9.991455
2022-09-28T08:59:33.587Z,9.991455
2022-09-28T09:00:43.322Z,10.041809
2022-09-28T09:01:53.651Z,10.021667
2022-09-28T09:03:01.813Z,10.041809
2022-09-28T09:04:13.331Z,10.041809
2022-09-28T09:05:23.094Z,10.041809
2022-09-28T09:06:32.898Z,10.092163
2022-09-28T09:07:41.601Z,10.041809
2022-09-28T09:08:51.406Z,10.092163
2022-09-28T09:10:00.260Z,10.122375
2022-09-28T09:11:08.960Z,10.162659
2022-09-28T09:12:18.640Z,10.172729
2022-09-28T09:13:26.317Z,10.152588
2022-09-28T09:14:36.001Z,10.162659
2022-09-28T09:15:44.971Z,10.132446
2022-09-28T09:16:55.525Z,10.162659
2022-09-28T09:18:04.405Z,10.202942
2022-09-28T09:19:15.184Z,10.192871
2022-09-28T09:20:24.864Z,10.192871
2022-09-28T09:21:34.581Z,10.202942
2022-09-28T09:22:43.423Z,10.233154
2022-09-28T09:23:53.001Z,10.253296
2022-09-28T09:25:01.708Z,10.283508
2022-09-28T09:26:10.497Z,10.122375
2022-09-28T09:27:21.101Z,9.971313
2022-09-28T09:28:28.781Z,9.80011
2022-09-28T09:29:37.502Z,9.739685
2022-09-28T09:30:47.224Z,9.67926
2022-09-28T09:31:55.922Z,9.638977
2022-09-28T09:33:05.653Z,9.558411
2022-09-28T09:34:15.497Z,9.497986
2022-09-28T09:35:27.093Z,9.467773
2022-09-28T09:36:32.739Z,9.467773
2022-09-28T09:37:40.527Z,9.42749
2022-09-28T09:38:49.345Z,9.42749
2022-09-28T09:39:58.972Z,9.42749
2022-09-28T09:41:06.756Z,9.387207
2022-09-28T09:42:16.382Z,9.367065
2022-09-28T09:43:27.907Z,9.367065
2022-09-28T09:44:34.755Z,9.397278
2022-09-28T09:45:44.523Z,9.437561
2022-09-28T09:46:52.164Z,9.457703
2022-09-28T09:48:00.846Z,9.497986
2022-09-28T09:49:10.656Z,9.508057
2022-09-28T09:50:19.386Z,9.578552
2022-09-28T09:51:29.118Z,9.618835
2022-09-28T09:52:40.961Z,9.67926
2022-09-28T09:53:47.571Z,9.689331
2022-09-28T09:54:57.299Z,9.659119
2022-09-28T09:56:06.066Z,9.67926
2022-09-28T09:57:15.799Z,9.689331
2022-09-28T09:58:25.502Z,9.608765
2022-09-28T09:59:34.180Z,9.578552
2022-09-28T10:00:41.972Z,9.608765
2022-09-28T10:01:51.795Z,9.578552
2022-09-28T10:03:00.605Z,9.558411
2022-09-28T10:04:10.174Z,9.588623
2022-09-28T10:05:19.904Z,9.608765
2022-09-28T10:06:27.616Z,9.659119
2022-09-28T10:07:40.348Z,9.659119
2022-09-28T10:08:47.012Z,9.67926
2022-09-28T10:09:54.769Z,9.608765
2022-09-28T10:11:04.466Z,9.649048
2022-09-28T10:12:14.143Z,9.608765
2022-09-28T10:13:22.912Z,9.618835
2022-09-28T10:14:32.653Z,9.618835
2022-09-28T10:15:40.369Z,9.638977
2022-09-28T10:16:50.152Z,9.588623
2022-09-28T10:17:59.838Z,9.588623
2022-09-28T10:19:09.840Z,9.578552
2022-09-28T10:20:19.447Z,9.588623
2022-09-28T10:21:29.120Z,9.67926
2022-09-28T10:22:37.825Z,9.729614
2022-09-28T10:23:47.669Z,9.769897
2022-09-28T10:24:55.379Z,9.830322
2022-09-28T10:26:05.053Z,9.689331
2022-09-28T10:27:13.786Z,9.558411
2022-09-28T10:28:22.470Z,9.558411
2022-09-28T10:29:33.168Z,9.477844
2022-09-28T10:30:41.907Z,9.457703
2022-09-28T10:31:51.573Z,9.42749
2022-09-28T10:33:01.281Z,9.467773
2022-09-28T10:34:09.944Z,9.477844
2022-09-28T10:35:19.627Z,9.538269
2022-09-28T10:36:28.472Z,9.508057
2022-09-28T10:37:37.141Z,9.508057
2022-09-28T10:38:46.831Z,9.538269
2022-09-28T10:39:55.604Z,9.497986
2022-09-28T10:41:04.325Z,9.497986
2022-09-28T10:42:13.999Z,9.538269
2022-09-28T10:43:21.853Z,9.538269
2022-09-28T10:44:31.534Z,9.54834
2022-09-28T10:45:40.297Z,9.558411
2022-09-28T10:46:48.928Z,9.508057
2022-09-28T10:47:58.625Z,9.538269
2022-09-28T10:49:07.305Z,9.508057
2022-09-28T10:50:15.988Z,9.467773
2022-09-28T10:51:25.695Z,9.508057
2022-09-28T10:52:35.410Z,9.608765
2022-09-28T10:53:45.350Z,9.618835
2022-09-28T10:54:54.006Z,9.558411
2022-09-28T10:56:01.720Z,9.54834
2022-09-28T10:57:13.423Z,9.578552
2022-09-28T10:58:21.225Z,9.558411
2022-09-28T10:59:30.997Z,9.54834
2022-09-28T11:00:40.686Z,9.538269
2022-09-28T11:01:50.462Z,9.54834
2022-09-28T11:03:00.146Z,9.54834
2022-09-28T11:04:08.806Z,9.618835
2022-09-28T11:05:17.526Z,9.618835
2022-09-28T11:06:27.266Z,9.659119
2022-09-28T11:07:36.955Z,9.67926
2022-09-28T11:08:45.620Z,9.719543
2022-09-28T11:09:55.297Z,9.759827
2022-09-28T11:11:02.979Z,9.759827
2022-09-28T11:12:12.688Z,9.790039
2022-09-28T11:13:22.372Z,9.830322
2022-09-28T11:14:31.168Z,9.870605
2022-09-28T11:15:41.827Z,9.910889
2022-09-28T11:16:50.838Z,9.971313
2022-09-28T11:17:59.507Z,9.941101
2022-09-28T11:19:09.227Z,9.981384
2022-09-28T11:20:20.623Z,10.05188
2022-09-28T11:21:29.706Z,10.102234
2022-09-28T11:22:39.467Z,10.152588
2022-09-28T11:23:49.172Z,10.122375
2022-09-28T11:24:58.838Z,10.102234
2022-09-28T11:26:07.555Z,10.092163
2022-09-28T11:27:18.242Z,10.122375
2022-09-28T11:28:28.018Z,10.092163
2022-09-28T11:29:35.759Z,10.072021
2022-09-28T11:30:45.563Z,10.102234
2022-09-28T11:31:55.210Z,10.021667
2022-09-28T11:33:03.937Z,9.951172
2022-09-28T11:34:13.740Z,9.920959
2022-09-28T11:35:23.348Z,9.830322
2022-09-28T11:36:32.089Z,9.860535
2022-09-28T11:37:41.787Z,9.910889
2022-09-28T11:38:49.457Z,9.890747
2022-09-28T11:39:59.269Z,9.840393
2022-09-28T11:41:08.989Z,9.890747
2022-09-28T11:42:16.782Z,9.941101
2022-09-28T11:43:26.405Z,9.991455
2022-09-28T11:44:35.090Z,10.072021
2022-09-28T11:45:43.948Z,10.102234
2022-09-28T11:46:52.566Z,10.041809
2022-09-28T11:48:00.247Z,10.072021
2022-09-28T11:49:09.935Z,10.102234
2022-09-28T11:50:22.852Z,10.152588
2022-09-28T11:51:28.311Z,10.233154
2022-09-28T11:52:35.973Z,10.313721
2022-09-28T11:53:45.661Z,10.354004
2022-09-28T11:54:55.528Z,10.384216
2022-09-28T11:56:06.625Z,10.414429
2022-09-28T11:57:12.929Z,10.464783
2022-09-28T11:58:21.631Z,10.414429
2022-09-28T11:59:30.447Z,10.313721
2022-09-28T12:00:40.190Z,10.313721
2022-09-28T12:01:48.841Z,10.404358
2022-09-28T12:02:58.766Z,10.404358
2022-09-28T12:04:08.339Z,10.333862
2022-09-28T12:05:20.633Z,10.283508
2022-09-28T12:06:26.694Z,10.202942
2022-09-28T12:07:36.392Z,10.152588
2022-09-28T12:08:46.223Z,10.223083
2022-09-28T12:09:55.994Z,10.30365
2022-09-28T12:11:04.701Z,10.384216
2022-09-28T12:12:13.425Z,10.404358
2022-09-28T12:13:23.112Z,10.354004
2022-09-28T12:14:32.855Z,10.384216
2022-09-28T12:16:07.720Z,10.4245
2022-09-28T12:17:05.253Z,10.535278
2022-09-28T12:18:04.106Z,10.595703
2022-09-28T12:19:13.713Z,10.505066
2022-09-28T12:20:22.438Z,10.565491
2022-09-28T12:21:31.126Z,10.585632
2022-09-28T12:22:40.930Z,10.67627
2022-09-28T12:23:50.664Z,10.67627
2022-09-28T12:25:00.327Z,10.605774
2022-09-28T12:26:09.121Z,10.595703
2022-09-28T12:27:17.855Z,10.585632
2022-09-28T12:28:27.555Z,10.535278
2022-09-28T12:29:36.235Z,10.595703
2022-09-28T12:30:45.983Z,10.55542
2022-09-28T12:31:55.842Z,10.55542
2022-09-28T12:33:04.513Z,10.585632
2022-09-28T12:34:13.206Z,10.505066
2022-09-28T12:35:22.907Z,10.464783
2022-09-28T12:36:31.648Z,10.484924
2022-09-28T12:37:40.408Z,10.494995
2022-09-28T12:39:08.711Z,10.464783
2022-09-28T12:40:02.245Z,10.4245
2022-09-28T12:41:11.564Z,10.484924
2022-09-28T12:42:20.322Z,10.525208
2022-09-28T12:43:30.138Z,10.444641
2022-09-28T12:44:39.828Z,10.4245
2022-09-28T12:46:10.280Z,10.464783
2022-09-28T12:46:58.260Z,10.4245
2022-09-28T12:48:07.866Z,10.484924
2022-09-28T12:50:38.384Z,10.55542
2022-09-28T12:51:37.977Z,10.464783
2022-09-28T12:52:47.750Z,10.494995
2022-09-28T12:53:57.455Z,10.484924
2022-09-28T12:55:07.264Z,10.505066
2022-09-28T12:56:18.099Z,10.535278
2022-09-28T12:57:25.660Z,10.494995
2022-09-28T12:58:34.338Z,10.484924
2022-09-28T12:59:43.170Z,10.525208
2022-09-28T13:00:52.085Z,10.565491
2022-09-28T13:02:01.655Z,10.625916
2022-09-28T13:03:11.346Z,10.706482
2022-09-28T13:04:20.106Z,10.746765
2022-09-28T13:05:29.818Z,10.80719
2022-09-28T13:06:38.604Z,10.80719
2022-09-28T13:07:48.299Z,10.817261
2022-09-28T13:08:57.013Z,10.857544
2022-09-28T13:10:05.719Z,10.837402
2022-09-28T13:11:15.471Z,10.817261
2022-09-28T13:12:24.211Z,10.746765
2022-09-28T13:13:33.911Z,10.756836
2022-09-28T13:14:43.623Z,10.706482
2022-09-28T13:15:53.468Z,10.68634
2022-09-28T13:17:02.112Z,10.706482
2022-09-28T13:18:11.857Z,10.736694
2022-09-28T13:19:19.650Z,10.736694
2022-09-28T13:20:29.271Z,10.736694
2022-09-28T13:21:37.983Z,10.67627
2022-09-28T13:22:47.676Z,10.625916
2022-09-28T13:24:08.658Z,10.585632
2022-09-28T13:25:08.170Z,10.535278
2022-09-28T13:26:17.835Z,10.505066
2022-09-28T13:27:26.533Z,10.464783
2022-09-28T13:28:35.243Z,10.484924
2022-09-28T13:29:44.982Z,10.464783
2022-09-28T13:30:52.801Z,10.414429
2022-09-28T13:32:01.403Z,10.333862